createdAt,value
2022-08-29T00:00:18.140Z,16.25
2022-08-29T00:02:47.973Z,16.32
2022-08-29T00:05:19.947Z,16.25
2022-08-29T00:07:53.390Z,16.20
2022-08-29T00:10:26.715Z,16.15
2022-08-29T00:12:57.769Z,16.10
2022-08-29T00:15:26.770Z,16.03
2022-08-29T00:17:55.080Z,15.97
2022-08-29T00:20:30.417Z,15.87
2022-08-29T00:23:03.192Z,15.84
2022-08-29T00:25:32.095Z,15.76
2022-08-29T00:28:01.872Z,15.69
2022-08-29T00:30:30.069Z,15.62
2022-08-29T00:32:58.359Z,15.54
2022-08-29T00:35:29.270Z,15.52
2022-08-29T00:37:59.509Z,15.43
2022-08-29T00:40:33.891Z,15.37
2022-08-29T00:43:03.900Z,15.28
2022-08-29T00:45:33.016Z,15.21
2022-08-29T00:48:03.817Z,15.15
2022-08-29T00:50:34.727Z,15.07
2022-08-29T00:53:04.768Z,14.98
2022-08-29T00:55:35.747Z,14.96
2022-08-29T00:58:07.845Z,14.90
2022-08-29T01:00:36.895Z,14.88
2022-08-29T01:03:05.729Z,14.84
2022-08-29T01:05:34.289Z,14.88
2022-08-29T01:08:02.388Z,14.75
2022-08-29T01:10:48.219Z,14.68
2022-08-29T01:13:17.869Z,14.62
2022-08-29T01:15:47.239Z,14.54
2022-08-29T01:18:16.778Z,14.47
2022-08-29T01:20:51.896Z,14.55
2022-08-29T01:23:23.142Z,14.47
2022-08-29T01:25:53.529Z,14.48
2022-08-29T01:28:23.947Z,14.42
2022-08-29T01:31:00.552Z,14.39
2022-08-29T01:33:38.541Z,14.32
2022-08-29T01:36:07.611Z,14.28
2022-08-29T01:38:35.760Z,14.21
2022-08-29T01:41:05.720Z,14.17
2022-08-29T01:43:40.278Z,14.15
2022-08-29T01:46:09.267Z,14.14
2022-08-29T01:48:39.156Z,14.13
2022-08-29T01:51:07.679Z,14.07
2022-08-29T01:53:36.378Z,13.96
2022-08-29T01:56:13.300Z,14.00
2022-08-29T01:58:41.851Z,13.94
2022-08-29T02:01:10.668Z,13.97
2022-08-29T02:03:38.909Z,13.91
2022-08-29T02:06:10.217Z,13.98
2022-08-29T02:08:38.581Z,13.97
2022-08-29T02:11:10.200Z,13.89
2022-08-29T02:13:40.751Z,13.85
2022-08-29T02:16:09.324Z,13.88
2022-08-29T02:18:37.511Z,13.87
2022-08-29T02:21:06.009Z,13.85
2022-08-29T02:23:36.068Z,13.76
2022-08-29T02:26:05.020Z,13.80
2022-08-29T02:28:33.777Z,13.82
2022-08-29T02:31:03.946Z,13.88
2022-08-29T02:33:32.819Z,13.84
2022-08-29T02:36:19.352Z,13.82
2022-08-29T02:38:48.011Z,13.86
2022-08-29T02:41:16.299Z,13.80
2022-08-29T02:43:44.941Z,13.81
2022-08-29T02:46:19.307Z,13.70
2022-08-29T02:48:56.933Z,13.62
2022-08-29T02:51:31.161Z,13.60
2022-08-29T02:53:59.697Z,13.65
2022-08-29T02:56:28.359Z,13.59
2022-08-29T02:58:56.591Z,13.57
2022-08-29T03:01:28.295Z,13.48
2022-08-29T03:03:56.561Z,13.34
2022-08-29T03:06:24.909Z,13.39
2022-08-29T03:08:54.185Z,13.31
2022-08-29T03:11:22.830Z,13.27
2022-08-29T03:13:51.117Z,13.21
2022-08-29T03:16:19.558Z,13.21
2022-08-29T03:18:49.171Z,13.17
2022-08-29T03:21:19.870Z,13.15
2022-08-29T03:23:48.721Z,13.12
2022-08-29T03:26:16.937Z,13.07
2022-08-29T03:28:45.311Z,13.07
2022-08-29T03:31:13.900Z,13.02
2022-08-29T03:33:42.160Z,13.00
2022-08-29T03:36:14.016Z,12.95
2022-08-29T03:38:43.760Z,13.00
2022-08-29T03:41:12.544Z,12.92
2022-08-29T03:43:40.942Z,12.87
2022-08-29T03:46:09.129Z,12.81
2022-08-29T03:48:37.371Z,12.90
2022-08-29T03:51:05.571Z,12.82
2022-08-29T03:53:35.282Z,12.74
2022-08-29T03:56:05.102Z,12.76
2022-08-29T03:58:33.466Z,12.78
2022-08-29T04:01:02.582Z,12.74
2022-08-29T04:03:31.021Z,12.74
2022-08-29T04:06:00.363Z,12.70
2022-08-29T04:08:28.608Z,12.66
2022-08-29T04:10:58.190Z,12.64
2022-08-29T04:13:26.380Z,12.64
2022-08-29T04:15:54.916Z,12.65
2022-08-29T04:18:23.242Z,12.66
2022-08-29T04:20:52.023Z,12.61
2022-08-29T04:23:20.110Z,12.54
2022-08-29T04:25:48.371Z,12.57
2022-08-29T04:28:17.877Z,12.56
2022-08-29T04:30:51.322Z,12.55
2022-08-29T04:33:22.450Z,12.57
2022-08-29T04:35:51.453Z,12.55
2022-08-29T04:38:19.698Z,12.56
2022-08-29T04:40:48.131Z,12.61
2022-08-29T04:43:17.710Z,12.57
2022-08-29T04:45:45.954Z,12.58
2022-08-29T04:48:14.091Z,12.56
2022-08-29T04:50:42.290Z,12.58
2022-08-29T04:53:10.525Z,12.62
2022-08-29T04:55:38.761Z,12.75
2022-08-29T04:58:10.128Z,12.76
2022-08-29T05:00:40.382Z,12.76
2022-08-29T05:03:08.730Z,12.87
2022-08-29T05:05:37.011Z,12.92
2022-08-29T05:08:05.391Z,12.92
2022-08-29T05:10:34.542Z,13.01
2022-08-29T05:13:02.672Z,13.03
2022-08-29T05:15:31.676Z,13.12
2022-08-29T05:18:01.359Z,13.21
2022-08-29T05:20:29.568Z,13.26
2022-08-29T05:22:57.953Z,13.30
2022-08-29T05:25:26.289Z,13.40
2022-08-29T05:27:54.450Z,13.49
2022-08-29T05:30:34.517Z,13.59
2022-08-29T05:33:04.954Z,13.74
2022-08-29T05:35:33.276Z,13.86
2022-08-29T05:38:03.754Z,13.94
2022-08-29T05:40:36.326Z,14.07
2022-08-29T05:43:04.979Z,14.07
2022-08-29T05:45:35.067Z,14.26
2022-08-29T05:48:08.331Z,14.33
2022-08-29T05:50:39.790Z,14.36
2022-08-29T05:53:07.954Z,14.36
2022-08-29T05:55:40.128Z,14.48
2022-08-29T05:58:08.524Z,14.58
2022-08-29T06:00:39.577Z,14.69
2022-08-29T06:03:10.783Z,14.88
2022-08-29T06:05:39.373Z,15.11
2022-08-29T06:08:07.771Z,15.04
2022-08-29T06:10:36.316Z,15.19
2022-08-29T06:13:04.476Z,15.32
2022-08-29T06:15:33.419Z,15.43
2022-08-29T06:18:01.591Z,15.47
2022-08-29T06:20:31.179Z,15.47
2022-08-29T06:22:59.383Z,15.54
2022-08-29T06:25:39.519Z,15.82
2022-08-29T06:28:08.455Z,16.86
2022-08-29T06:30:36.701Z,17.03
2022-08-29T06:33:05.033Z,16.71
2022-08-29T06:35:34.633Z,16.61
2022-08-29T06:38:02.724Z,16.66
2022-08-29T06:40:31.114Z,16.72
2022-08-29T06:43:07.394Z,16.71
2022-08-29T06:45:41.778Z,16.86
2022-08-29T06:48:09.913Z,16.79
2022-08-29T06:50:45.641Z,16.90
2022-08-29T06:53:27.521Z,16.87
2022-08-29T06:56:06.246Z,17.07
2022-08-29T06:58:40.811Z,17.25
2022-08-29T07:01:11.064Z,17.69
2022-08-29T07:03:41.363Z,17.49
2022-08-29T07:06:11.763Z,17.53
2022-08-29T07:08:54.754Z,17.88
2022-08-29T07:11:24.771Z,18.05
2022-08-29T07:13:52.997Z,18.28
2022-08-29T07:16:21.184Z,18.13
2022-08-29T07:18:51.378Z,18.55
2022-08-29T07:21:23.728Z,18.54
2022-08-29T07:23:52.357Z,18.58
2022-08-29T07:26:22.428Z,18.98
2022-08-29T07:28:52.127Z,19.00
2022-08-29T07:31:22.007Z,19.17
2022-08-29T07:33:53.381Z,19.05
2022-08-29T07:36:32.355Z,19.36
2022-08-29T07:39:02.657Z,19.33
2022-08-29T07:41:32.057Z,19.54
2022-08-29T07:44:00.256Z,19.78
2022-08-29T07:46:28.401Z,19.59
2022-08-29T07:48:57.197Z,19.85
2022-08-29T07:51:25.838Z,19.95
2022-08-29T07:53:56.015Z,20.23
2022-08-29T07:56:25.860Z,20.27
2022-08-29T07:58:55.167Z,20.22
2022-08-29T08:01:24.026Z,20.03
2022-08-29T08:03:53.976Z,20.35
2022-08-29T08:06:24.064Z,20.35
2022-08-29T08:08:57.337Z,20.54
2022-08-29T08:11:26.647Z,20.58
2022-08-29T08:13:55.405Z,20.81
2022-08-29T08:16:25.167Z,21.07
2022-08-29T08:18:53.937Z,20.86
2022-08-29T08:21:22.616Z,21.06
2022-08-29T08:23:50.887Z,20.98
2022-08-29T08:26:21.259Z,21.26
2022-08-29T08:28:49.647Z,21.21
2022-08-29T08:31:18.663Z,21.42
2022-08-29T08:33:47.507Z,21.29
2022-08-29T08:36:17.999Z,21.31
2022-08-29T08:38:46.669Z,21.24
2022-08-29T08:41:27.025Z,21.50
2022-08-29T08:43:58.638Z,21.57
2022-08-29T08:46:30.634Z,21.80
2022-08-29T08:49:02.256Z,21.86
2022-08-29T08:51:33.680Z,21.94
2022-08-29T08:54:04.516Z,21.81
2022-08-29T08:56:37.026Z,21.88
2022-08-29T08:59:08.868Z,21.73
2022-08-29T09:01:43.443Z,22.21
2022-08-29T09:04:27.328Z,22.36
2022-08-29T09:07:10.004Z,22.39
2022-08-29T09:09:46.487Z,22.69
2022-08-29T09:12:27.690Z,22.64
2022-08-29T09:15:04.358Z,22.70
2022-08-29T09:17:41.578Z,22.66
2022-08-29T09:20:13.526Z,22.31
2022-08-29T09:22:44.607Z,22.60
2022-08-29T09:25:14.186Z,22.69
2022-08-29T09:27:43.778Z,22.13
2022-08-29T09:30:16.241Z,21.92
2022-08-29T09:32:54.956Z,21.73
2022-08-29T09:35:26.891Z,21.63
2022-08-29T09:38:01.287Z,21.38
2022-08-29T09:40:46.460Z,21.59
2022-08-29T09:43:21.747Z,21.46
2022-08-29T09:46:05.569Z,22.26
2022-08-29T09:48:35.720Z,22.12
2022-08-29T09:51:13.840Z,21.88
2022-08-29T09:53:42.839Z,22.32
2022-08-29T09:56:17.690Z,23.02
2022-08-29T09:58:58.432Z,23.52
2022-08-29T10:01:28.587Z,23.45
2022-08-29T10:03:59.761Z,23.76
2022-08-29T10:06:30.096Z,23.99
2022-08-29T10:09:01.749Z,24.21
2022-08-29T10:11:34.810Z,24.59
2022-08-29T10:14:07.298Z,24.08
2022-08-29T10:16:47.582Z,24.37
2022-08-29T10:19:20.578Z,24.14
2022-08-29T10:21:56.970Z,24.21
2022-08-29T10:24:55.254Z,24.61
2022-08-29T10:27:32.627Z,25.20
2022-08-29T10:30:08.737Z,25.17
2022-08-29T10:32:56.585Z,25.89
2022-08-29T10:35:27.819Z,25.72
2022-08-29T10:37:58.849Z,25.69
2022-08-29T10:40:30.718Z,25.50
2022-08-29T10:43:13.671Z,24.67
2022-08-29T10:45:53.378Z,24.47
2022-08-29T10:48:23.207Z,23.97
2022-08-29T10:50:59.337Z,23.93
2022-08-29T10:53:30.798Z,23.12
2022-08-29T10:56:04.432Z,23.21
2022-08-29T10:58:47.808Z,23.10
2022-08-29T11:01:21.245Z,22.92
2022-08-29T11:03:54.402Z,22.79
2022-08-29T11:06:27.147Z,22.88
2022-08-29T11:08:58.452Z,22.79
2022-08-29T11:11:27.052Z,22.95
2022-08-29T11:14:03.499Z,22.74
2022-08-29T11:16:38.045Z,22.71
2022-08-29T11:19:12.736Z,22.65
2022-08-29T11:21:42.717Z,22.78
2022-08-29T11:24:11.438Z,23.30
2022-08-29T11:26:49.049Z,24.05
2022-08-29T11:29:25.359Z,23.99
2022-08-29T11:32:00.730Z,23.88
2022-08-29T11:34:35.088Z,23.69
2022-08-29T11:37:32.399Z,23.63
2022-08-29T11:40:04.287Z,23.75
2022-08-29T11:42:51.044Z,23.82
2022-08-29T11:45:25.939Z,23.87
2022-08-29T11:48:20.950Z,23.76
2022-08-29T11:50:49.787Z,24.32
2022-08-29T11:53:34.127Z,25.27
2022-08-29T11:56:22.546Z,25.42
2022-08-29T11:58:53.448Z,25.87
2022-08-29T12:02:01.534Z,26.28
2022-08-29T12:04:54.983Z,26.24
2022-08-29T12:07:33.734Z,25.68
2022-08-29T12:10:03.979Z,25.37
2022-08-29T12:12:47.617Z,25.54
2022-08-29T12:16:00.067Z,25.78
2022-08-29T12:18:38.279Z,26.12
2022-08-29T12:21:48.849Z,26.14
2022-08-29T12:24:39.994Z,26.77
2022-08-29T12:27:27.459Z,27.02
2022-08-29T12:29:55.757Z,26.60
2022-08-29T12:32:39.991Z,26.19
2022-08-29T12:35:22.286Z,26.88
2022-08-29T12:38:00.657Z,27.65
2022-08-29T12:40:47.402Z,28.01
2022-08-29T12:43:23.942Z,27.50
2022-08-29T12:45:53.170Z,28.20
2022-08-29T12:48:25.468Z,29.48
2022-08-29T12:50:54.102Z,32.13
2022-08-29T12:53:24.611Z,32.69
2022-08-29T12:55:56.782Z,34.86
2022-08-29T12:58:42.557Z,35.40
2022-08-29T13:01:23.001Z,35.31
2022-08-29T13:04:02.286Z,35.18
2022-08-29T13:06:31.348Z,34.47
2022-08-29T13:08:59.600Z,36.24
2022-08-29T13:11:31.441Z,37.78
2022-08-29T13:14:08.646Z,38.23
2022-08-29T13:16:37.093Z,39.21
2022-08-29T13:19:11.217Z,37.67
2022-08-29T13:21:40.026Z,37.90
2022-08-29T13:24:12.892Z,36.43
2022-08-29T13:26:50.451Z,38.50
2022-08-29T13:29:36.686Z,38.63
2022-08-29T13:32:18.928Z,38.93
2022-08-29T13:35:01.939Z,39.33
2022-08-29T13:37:33.548Z,36.40
2022-08-29T13:40:33.572Z,36.60
2022-08-29T13:43:03.496Z,38.61
2022-08-29T13:45:32.427Z,38.69
2022-08-29T13:48:20.570Z,39.05
2022-08-29T13:50:48.793Z,39.46
2022-08-29T13:53:17.107Z,36.75
2022-08-29T13:55:45.336Z,36.32
2022-08-29T13:58:15.968Z,37.16
2022-08-29T14:00:44.997Z,38.70
2022-08-29T14:03:16.997Z,39.57
2022-08-29T14:05:45.600Z,38.93
2022-08-29T14:08:14.594Z,36.99
2022-08-29T14:10:42.958Z,38.28
2022-08-29T14:13:11.122Z,40.31
2022-08-29T14:15:40.782Z,40.53
2022-08-29T14:18:09.057Z,41.70
2022-08-29T14:20:39.158Z,39.84
2022-08-29T14:23:07.589Z,40.76
2022-08-29T14:25:35.920Z,41.22
2022-08-29T14:28:04.567Z,38.23
2022-08-29T14:30:32.975Z,34.55
2022-08-29T14:33:02.600Z,32.41
2022-08-29T14:35:31.949Z,30.37
2022-08-29T14:38:01.418Z,30.03
2022-08-29T14:40:30.536Z,29.20
2022-08-29T14:42:59.219Z,28.74
2022-08-29T14:45:28.079Z,29.08
2022-08-29T14:47:56.378Z,32.28
2022-08-29T14:50:26.176Z,33.93
2022-08-29T14:52:54.589Z,34.06
2022-08-29T14:55:23.115Z,35.45
2022-08-29T14:57:51.488Z,36.32
2022-08-29T15:00:21.540Z,37.02
2022-08-29T15:02:50.482Z,37.57
2022-08-29T15:05:18.999Z,36.73
2022-08-29T15:07:48.677Z,37.48
2022-08-29T15:10:19.098Z,37.39
2022-08-29T15:12:47.360Z,37.98
2022-08-29T15:15:15.610Z,35.14
2022-08-29T15:17:44.846Z,32.76
2022-08-29T15:23:04.399Z,29.71
2022-08-29T15:25:32.687Z,28.89
2022-08-29T15:28:00.846Z,28.50
2022-08-29T15:30:29.023Z,28.37
2022-08-29T15:32:57.189Z,27.54
2022-08-29T15:35:25.437Z,27.24
2022-08-29T15:37:54.516Z,27.18
2022-08-29T15:40:24.126Z,26.81
2022-08-29T15:42:52.366Z,26.64
2022-08-29T15:45:22.559Z,26.20
2022-08-29T15:47:51.372Z,25.79
2022-08-29T15:50:22.652Z,25.69
2022-08-29T15:52:50.739Z,25.15
2022-08-29T15:55:18.857Z,25.11
2022-08-29T15:57:51.365Z,25.06
2022-08-29T16:00:29.717Z,24.89
2022-08-29T16:02:59.979Z,24.84
2022-08-29T16:05:28.665Z,24.83
2022-08-29T16:07:56.751Z,24.70
2022-08-29T16:10:24.956Z,24.66
2022-08-29T16:12:54.456Z,24.71
2022-08-29T16:15:22.602Z,24.49
2022-08-29T16:17:50.757Z,24.49
2022-08-29T16:20:19.597Z,24.37
2022-08-29T16:22:47.787Z,24.52
2022-08-29T16:25:16.692Z,24.35
2022-08-29T16:27:44.826Z,24.31
2022-08-29T16:30:15.225Z,24.18
2022-08-29T16:32:43.586Z,24.07
2022-08-29T16:35:12.923Z,23.93
2022-08-29T16:37:41.207Z,23.92
2022-08-29T16:40:10.972Z,23.90
2022-08-29T16:42:39.573Z,23.58
2022-08-29T16:45:09.880Z,23.29
2022-08-29T16:47:39.666Z,23.16
2022-08-29T16:50:12.129Z,22.99
2022-08-29T16:52:40.645Z,22.91
2022-08-29T16:55:09.886Z,22.84
2022-08-29T16:57:38.078Z,22.75
2022-08-29T17:00:09.876Z,22.72
2022-08-29T17:02:39.339Z,22.71
2022-08-29T17:05:08.817Z,22.73
2022-08-29T17:07:35.676Z,22.67
2022-08-29T17:10:04.037Z,22.61
2022-08-29T17:12:30.965Z,22.54
2022-08-29T17:14:57.919Z,22.46
2022-08-29T17:17:25.988Z,22.39
2022-08-29T17:19:55.456Z,22.35
2022-08-29T17:22:23.615Z,22.23
2022-08-29T17:24:51.629Z,22.20
2022-08-29T17:27:21.665Z,22.08
2022-08-29T17:29:50.340Z,22.01
2022-08-29T17:32:18.655Z,21.84
2022-08-29T17:34:48.116Z,21.76
2022-08-29T17:37:17.589Z,21.65
2022-08-29T17:39:45.676Z,21.50
2022-08-29T17:42:14.476Z,21.37
2022-08-29T17:44:43.026Z,21.23
2022-08-29T17:47:12.078Z,21.22
2022-08-29T17:49:40.206Z,21.18
2022-08-29T17:52:08.260Z,21.13
2022-08-29T17:54:37.926Z,21.03
2022-08-29T17:57:06.236Z,20.95
2022-08-29T17:59:35.803Z,20.87
2022-08-29T18:02:05.317Z,20.78
2022-08-29T18:04:33.947Z,20.73
2022-08-29T18:07:02.068Z,20.59
2022-08-29T18:09:30.546Z,20.38
2022-08-29T18:11:59.934Z,20.20
2022-08-29T18:14:28.756Z,20.03
2022-08-29T18:16:57.681Z,19.93
2022-08-29T18:19:27.169Z,19.80
2022-08-29T18:21:55.599Z,19.66
2022-08-29T18:24:23.709Z,19.61
2022-08-29T18:26:52.256Z,19.44
2022-08-29T18:29:22.017Z,19.41
2022-08-29T18:31:50.257Z,19.42
2022-08-29T18:34:19.107Z,19.42
2022-08-29T18:36:47.816Z,19.31
2022-08-29T18:39:17.128Z,19.31
2022-08-29T18:41:45.218Z,19.27
2022-08-29T18:44:14.046Z,19.22
2022-08-29T18:46:47.914Z,19.15
2022-08-29T18:49:16.878Z,19.07
2022-08-29T18:51:45.016Z,19.00
2022-08-29T18:54:17.448Z,18.92
2022-08-29T18:56:46.993Z,18.89
2022-08-29T18:59:15.080Z,18.97
2022-08-29T19:01:44.775Z,19.09
2022-08-29T19:04:12.946Z,19.17
2022-08-29T19:06:41.118Z,19.24
2022-08-29T19:09:09.245Z,19.19
2022-08-29T19:11:37.645Z,19.30
2022-08-29T19:14:05.775Z,19.27
2022-08-29T19:16:37.062Z,19.24
2022-08-29T19:19:06.654Z,19.24
2022-08-29T19:21:42.510Z,19.24
2022-08-29T19:24:10.636Z,19.22
2022-08-29T19:26:40.182Z,19.22
2022-08-29T19:29:12.772Z,19.20
2022-08-29T19:31:41.151Z,19.17
2022-08-29T19:34:11.535Z,19.05
2022-08-29T19:36:43.088Z,18.94
2022-08-29T19:39:15.889Z,18.84
2022-08-29T19:41:44.128Z,18.71
2022-08-29T19:44:12.185Z,18.51
2022-08-29T19:46:48.667Z,18.29
2022-08-29T19:49:19.360Z,18.17
2022-08-29T19:51:47.385Z,18.04
2022-08-29T19:54:16.435Z,17.97
2022-08-29T19:56:46.835Z,17.86
2022-08-29T19:59:15.164Z,17.78
2022-08-29T20:01:45.186Z,17.67
2022-08-29T20:04:13.295Z,17.56
2022-08-29T20:06:42.685Z,17.47
2022-08-29T20:09:12.331Z,17.45
2022-08-29T20:11:43.458Z,17.50
2022-08-29T20:14:11.949Z,17.42
2022-08-29T20:16:42.949Z,17.38
2022-08-29T20:19:12.067Z,17.34
2022-08-29T20:21:41.177Z,17.30
2022-08-29T20:24:10.697Z,17.30
2022-08-29T20:26:43.976Z,17.15
2022-08-29T20:29:13.104Z,17.09
2022-08-29T20:31:41.442Z,17.05
2022-08-29T20:34:09.585Z,17.00
2022-08-29T20:36:55.165Z,16.89
2022-08-29T20:39:24.684Z,16.88
2022-08-29T20:41:55.507Z,16.90
2022-08-29T20:44:23.876Z,16.84
2022-08-29T20:46:52.286Z,16.74
2022-08-29T20:49:23.853Z,16.74
2022-08-29T20:51:53.138Z,16.70
2022-08-29T20:54:23.205Z,16.75
2022-08-29T20:56:53.205Z,16.83
2022-08-29T20:59:23.551Z,16.84
2022-08-29T21:01:55.681Z,16.90
2022-08-29T21:04:41.456Z,16.98
2022-08-29T21:07:11.886Z,17.07
2022-08-29T21:09:43.344Z,17.23
2022-08-29T21:12:14.535Z,17.32
2022-08-29T21:14:42.635Z,17.38
2022-08-29T21:17:12.475Z,17.30
2022-08-29T21:19:41.628Z,17.15
2022-08-29T21:22:11.754Z,17.17
2022-08-29T21:24:40.226Z,17.09
2022-08-29T21:27:08.385Z,16.99
2022-08-29T21:29:38.059Z,16.96
2022-08-29T21:32:06.214Z,16.88
2022-08-29T21:34:34.243Z,16.83
2022-08-29T21:37:02.236Z,16.78
2022-08-29T21:39:30.637Z,16.72
2022-08-29T21:42:02.994Z,16.63
2022-08-29T21:44:31.357Z,16.54
2022-08-29T21:47:01.165Z,16.47
2022-08-29T21:49:30.594Z,16.51
2022-08-29T21:51:58.568Z,16.33
2022-08-29T21:54:26.826Z,16.28
2022-08-29T21:56:54.823Z,16.19
2022-08-29T21:59:23.097Z,16.15
2022-08-29T22:01:54.613Z,16.14
2022-08-29T22:04:28.223Z,16.13
2022-08-29T22:06:57.535Z,16.09
2022-08-29T22:09:25.842Z,16.08
2022-08-29T22:11:54.124Z,16.01
2022-08-29T22:14:42.175Z,15.95
2022-08-29T22:17:09.205Z,15.82
2022-08-29T22:19:38.655Z,15.74
2022-08-29T22:22:06.867Z,15.71
2022-08-29T22:24:35.552Z,15.66
2022-08-29T22:27:03.505Z,15.57
2022-08-29T22:29:31.665Z,15.60
2022-08-29T22:32:00.683Z,15.70
2022-08-29T22:34:28.668Z,15.61
2022-08-29T22:36:58.081Z,15.59
2022-08-29T22:39:26.107Z,15.59
2022-08-29T22:41:55.564Z,15.52
2022-08-29T22:45:02.325Z,15.45
2022-08-29T22:47:11.533Z,15.39
2022-08-29T22:49:40.555Z,15.42
2022-08-29T22:52:11.699Z,15.39
2022-08-29T22:54:40.269Z,15.34
2022-08-29T22:57:09.844Z,15.38
2022-08-29T22:59:38.764Z,15.32
2022-08-29T23:02:07.364Z,15.22
2022-08-29T23:04:35.500Z,15.18
2022-08-29T23:07:03.664Z,15.09
2022-08-29T23:09:35.550Z,15.06
2022-08-29T23:12:05.053Z,15.12
2022-08-29T23:14:33.297Z,15.11
2022-08-29T23:17:01.318Z,15.11
2022-08-29T23:19:29.387Z,15.08
2022-08-29T23:21:59.364Z,15.09
2022-08-29T23:24:30.234Z,14.99
2022-08-29T23:26:59.677Z,14.92
2022-08-29T23:29:29.705Z,14.88
2022-08-29T23:31:57.784Z,14.82
2022-08-29T23:34:25.795Z,14.75
2022-08-29T23:36:53.884Z,14.82
2022-08-29T23:39:21.864Z,14.73
2022-08-29T23:41:49.938Z,14.63
2022-08-29T23:44:19.635Z,14.56
2022-08-29T23:46:47.756Z,14.47
2022-08-29T23:49:15.795Z,14.55
2022-08-29T23:51:43.849Z,14.52
2022-08-29T23:54:11.837Z,14.50
2022-08-29T23:56:39.984Z,14.43
2022-08-29T23:59:08.027Z,14.40
